createdAt,value
2023-09-17T07:41:47.567Z,62.50
2023-09-17T07:44:56.197Z,62.90
2023-09-17T07:48:05.359Z,63.00
2023-09-17T07:51:13.485Z,62.90
2023-09-17T07:54:21.626Z,62.80
2023-09-17T07:57:30.790Z,62.90
2023-09-17T08:00:38.971Z,62.90
2023-09-17T08:03:47.527Z,62.90
2023-09-17T08:06:56.116Z,62.90
2023-09-17T08:10:04.711Z,62.90
2023-09-17T08:13:14.983Z,62.90
2023-09-17T08:16:25.030Z,62.90
2023-09-17T08:19:33.252Z,63.10
2023-09-17T08:22:42.147Z,63.30
2023-09-17T08:25:51.957Z,64.30
2023-09-17T08:29:02.878Z,63.30
2023-09-17T08:32:12.335Z,63.20
2023-09-17T08:35:20.385Z,63.60
2023-09-17T08:38:28.118Z,63.70
2023-09-17T08:41:36.968Z,63.70
2023-09-17T08:44:46.587Z,63.70
2023-09-17T08:47:54.744Z,63.70
2023-09-17T08:51:02.683Z,63.70
2023-09-17T08:54:12.313Z,63.70
2023-09-17T08:57:22.020Z,63.60
2023-09-17T09:00:31.371Z,63.60
2023-09-17T09:03:39.595Z,63.50
2023-09-17T09:06:47.671Z,63.40
2023-09-17T09:09:56.106Z,63.40
2023-09-17T09:13:04.519Z,63.40
2023-09-17T09:16:14.018Z,63.30
2023-09-17T09:19:21.999Z,63.30
2023-09-17T09:22:30.151Z,63.40
2023-09-17T09:25:38.450Z,63.40
2023-09-17T09:28:46.865Z,63.30
2023-09-17T09:31:56.238Z,63.20
2023-09-17T09:35:04.200Z,63.20
2023-09-17T09:38:12.960Z,63.30
2023-09-17T09:41:20.905Z,63.10
2023-09-17T09:44:28.583Z,63.10
2023-09-17T09:47:39.777Z,63.10
2023-09-17T09:50:49.193Z,63.00
2023-09-17T09:53:57.952Z,63.00
2023-09-17T09:57:07.028Z,62.90
2023-09-17T10:00:17.912Z,62.90
2023-09-17T10:03:28.596Z,62.80
2023-09-17T10:06:37.551Z,62.80
2023-09-17T10:09:45.251Z,62.70
2023-09-17T10:12:54.418Z,62.60
2023-09-17T10:16:03.146Z,62.50
2023-09-17T10:19:13.130Z,62.50
2023-09-17T10:22:21.162Z,62.50
2023-09-17T10:25:29.698Z,62.30
2023-09-17T10:28:38.167Z,63.00
2023-09-17T10:31:46.575Z,62.30
2023-09-17T10:34:58.283Z,62.30
2023-09-17T10:38:06.912Z,62.30
2023-09-17T10:41:15.307Z,62.20
2023-09-17T10:44:24.779Z,62.10
2023-09-17T10:47:32.796Z,62.10
2023-09-17T10:50:42.268Z,62.10
2023-09-17T10:53:50.801Z,62.10
2023-09-17T10:56:59.144Z,62.10
2023-09-17T11:00:12.602Z,62.10
2023-09-17T11:03:22.334Z,62.10
2023-09-17T11:06:32.971Z,62.00
2023-09-17T11:09:41.198Z,62.00
2023-09-17T11:12:49.503Z,61.90
2023-09-17T11:15:57.615Z,61.90
2023-09-17T11:19:06.857Z,61.90
2023-09-17T11:22:16.025Z,61.80
2023-09-17T11:25:36.949Z,62.60
2023-09-17T11:28:45.245Z,61.90
2023-09-17T11:32:04.485Z,62.00
2023-09-17T11:35:13.187Z,62.10
2023-09-17T11:38:25.729Z,62.90
2023-09-17T11:41:42.716Z,62.30
2023-09-17T11:44:53.499Z,62.40
2023-09-17T11:48:02.036Z,62.70
2023-09-17T11:51:21.870Z,62.80
2023-09-17T11:54:35.318Z,62.80
2023-09-17T11:57:43.580Z,62.80
2023-09-17T12:00:51.917Z,63.00
2023-09-17T12:04:00.072Z,63.00
2023-09-17T12:07:10.090Z,63.00
2023-09-17T12:10:21.252Z,63.00
2023-09-17T12:13:31.574Z,63.00
2023-09-17T12:16:39.924Z,63.00
2023-09-17T12:20:02.025Z,62.90
2023-09-17T12:23:38.811Z,62.80
2023-09-17T12:27:20.757Z,62.80
2023-09-17T12:30:30.616Z,62.70
2023-09-17T12:33:39.691Z,62.60
2023-09-17T12:36:47.601Z,62.60
2023-09-17T12:39:55.894Z,62.50
2023-09-17T12:43:06.880Z,62.40
2023-09-17T12:46:14.894Z,62.30
2023-09-17T12:49:24.040Z,62.40
2023-09-17T12:52:32.128Z,62.30
2023-09-17T12:55:40.278Z,62.30
2023-09-17T12:58:52.355Z,62.20
2023-09-17T13:02:01.351Z,62.20
2023-09-17T13:05:19.417Z,62.10
2023-09-17T13:08:28.412Z,62.10
2023-09-17T13:11:36.484Z,62.00
2023-09-17T13:14:45.913Z,61.90
2023-09-17T13:17:54.061Z,61.90
2023-09-17T13:21:02.221Z,61.90
2023-09-17T13:24:11.373Z,61.80
2023-09-17T13:27:19.694Z,61.80
2023-09-17T13:30:29.052Z,62.00
2023-09-17T13:33:38.809Z,62.20
2023-09-17T13:36:47.073Z,62.40
2023-09-17T13:39:55.129Z,62.40
2023-09-17T13:43:03.313Z,62.10
2023-09-17T13:46:16.795Z,62.00
2023-09-17T13:49:25.011Z,61.70
2023-09-17T13:52:32.902Z,61.70
2023-09-17T13:55:41.212Z,61.60
2023-09-17T13:58:49.528Z,61.40
2023-09-17T14:01:59.334Z,61.30
2023-09-17T14:05:07.803Z,61.20
2023-09-17T14:08:15.810Z,61.20
2023-09-17T14:11:25.329Z,61.00
2023-09-17T14:14:33.504Z,61.00
2023-09-17T14:17:42.970Z,60.90
2023-09-17T14:20:51.172Z,60.80
2023-09-17T14:23:59.325Z,60.70
2023-09-17T14:27:07.184Z,60.70
2023-09-17T14:30:22.491Z,60.70
2023-09-17T14:33:31.674Z,60.60
2023-09-17T14:36:39.609Z,60.60
2023-09-17T14:39:47.824Z,61.20
2023-09-17T14:42:56.094Z,60.30
2023-09-17T14:46:04.036Z,60.10
2023-09-17T14:49:13.633Z,60.00
2023-09-17T14:52:21.893Z,59.90
2023-09-17T14:55:30.080Z,59.70
2023-09-17T14:58:38.421Z,59.60
2023-09-17T15:04:58.993Z,58.80
2023-09-17T15:08:07.290Z,59.00
2023-09-17T15:11:15.388Z,59.10
2023-09-17T15:14:23.436Z,59.00
2023-09-17T15:17:31.567Z,58.90
2023-09-17T15:20:41.077Z,58.80
2023-09-17T15:23:48.847Z,58.80
2023-09-17T15:26:56.828Z,58.70
2023-09-17T15:30:05.685Z,58.70
2023-09-17T15:33:13.866Z,58.60
2023-09-17T15:36:23.852Z,58.50
2023-09-17T15:39:32.048Z,58.40
2023-09-17T15:42:40.170Z,58.30
2023-09-17T15:45:48.332Z,58.30
2023-09-17T15:48:56.542Z,58.20
2023-09-17T15:52:06.102Z,58.10
2023-09-17T15:55:14.568Z,58.10
2023-09-17T15:58:22.481Z,58.00
2023-09-17T16:01:30.718Z,58.00
2023-09-17T16:04:38.655Z,58.00
2023-09-17T16:07:51.528Z,57.90
2023-09-17T16:10:59.671Z,57.80
2023-09-17T16:14:07.607Z,57.80
2023-09-17T16:17:15.558Z,57.80
2023-09-17T16:20:23.724Z,57.70
2023-09-17T16:23:33.202Z,57.60
2023-09-17T16:26:41.300Z,57.60
2023-09-17T16:29:49.532Z,57.60
2023-09-17T16:32:57.630Z,57.50
2023-09-17T16:36:05.628Z,57.50
2023-09-17T16:39:15.012Z,57.50
2023-09-17T16:42:22.762Z,57.50
2023-09-17T16:45:30.867Z,57.40
2023-09-17T16:48:39.034Z,57.40
2023-09-17T16:51:47.817Z,57.40
2023-09-17T16:54:57.121Z,57.30
2023-09-17T16:58:05.094Z,57.40
2023-09-17T17:01:13.371Z,57.30
2023-09-17T17:04:21.458Z,57.30
2023-09-17T17:07:30.654Z,57.30
2023-09-17T17:10:40.561Z,57.30
2023-09-17T17:13:48.665Z,57.20
2023-09-17T17:16:58.374Z,57.20
2023-09-17T17:20:08.271Z,57.10
2023-09-17T17:23:17.719Z,57.20
2023-09-17T17:26:27.547Z,57.10
2023-09-17T17:29:35.797Z,57.10
2023-09-17T17:32:46.133Z,57.10
2023-09-17T17:35:54.323Z,57.10
2023-09-17T17:39:02.307Z,57.10
2023-09-17T17:42:11.838Z,57.00
2023-09-17T17:45:21.505Z,57.10
2023-09-17T17:48:29.804Z,57.00
2023-09-17T17:51:37.940Z,57.00
2023-09-17T17:54:45.962Z,57.00
2023-09-17T17:57:55.274Z,57.10
2023-09-17T18:01:04.140Z,57.10
2023-09-17T18:04:12.022Z,57.00
2023-09-17T18:07:19.990Z,57.10
2023-09-17T18:10:28.032Z,57.00
2023-09-17T18:13:37.499Z,57.00
2023-09-17T18:16:46.017Z,57.00
2023-09-17T18:19:54.152Z,57.20
2023-09-17T18:23:02.434Z,56.90
2023-09-17T18:26:10.594Z,57.00
2023-09-17T18:29:22.200Z,57.10
2023-09-17T18:32:30.282Z,57.20
2023-09-17T18:35:38.569Z,57.20
2023-09-17T18:38:46.652Z,57.30
2023-09-17T18:41:54.716Z,57.20
2023-09-17T18:45:04.744Z,57.30
2023-09-17T18:48:13.565Z,57.30
2023-09-17T18:51:21.740Z,57.30
2023-09-17T18:54:29.669Z,57.30
2023-09-17T18:57:40.654Z,57.40
2023-09-17T19:00:50.098Z,57.40
2023-09-17T19:03:58.395Z,57.40
2023-09-17T19:07:06.296Z,57.40
2023-09-17T19:10:16.188Z,58.00
2023-09-17T19:13:24.463Z,57.70
2023-09-17T19:16:33.893Z,57.70
2023-09-17T19:19:41.984Z,57.60
2023-09-17T19:22:50.029Z,57.90
2023-09-17T19:25:58.131Z,58.10
2023-09-17T19:29:06.481Z,58.10
2023-09-17T19:32:15.899Z,58.10
2023-09-17T19:35:24.119Z,58.20
2023-09-17T19:38:32.455Z,58.30
2023-09-17T19:41:40.867Z,58.50
2023-09-17T19:44:49.475Z,58.50
2023-09-17T19:47:59.893Z,58.80
2023-09-17T19:51:10.116Z,58.90
2023-09-17T19:54:18.366Z,58.90
2023-09-17T19:57:26.638Z,59.00
2023-09-17T20:00:34.973Z,59.10
2023-09-17T20:03:44.415Z,59.00
2023-09-17T20:06:55.719Z,59.10
2023-09-17T20:10:05.313Z,59.10
2023-09-17T20:13:15.145Z,59.20
2023-09-17T20:16:23.197Z,59.20
2023-09-17T20:19:36.187Z,59.20
2023-09-17T20:22:45.352Z,59.30
2023-09-17T20:25:53.574Z,59.30
2023-09-17T20:29:01.577Z,59.30
2023-09-17T20:32:09.503Z,59.40
2023-09-17T20:35:18.905Z,59.40
2023-09-17T20:38:26.900Z,59.40
2023-09-17T20:41:34.754Z,59.40
2023-09-17T20:44:42.792Z,59.50
2023-09-17T20:47:50.924Z,59.50
2023-09-17T20:51:02.150Z,59.50
2023-09-17T20:54:11.566Z,59.50
2023-09-17T20:57:21.342Z,59.50
2023-09-17T21:00:29.287Z,59.50
2023-09-17T21:03:37.246Z,59.50
2023-09-17T21:06:46.760Z,59.50
2023-09-17T21:09:55.403Z,59.70
2023-09-17T21:13:03.706Z,59.60
2023-09-17T21:16:13.145Z,59.70
2023-09-17T21:19:22.581Z,59.70
2023-09-17T21:22:32.290Z,59.70
2023-09-17T21:25:40.163Z,59.70
2023-09-17T21:28:48.115Z,59.70
2023-09-17T21:31:56.583Z,59.70
2023-09-17T21:35:06.946Z,59.70
2023-09-17T21:38:16.405Z,59.60
2023-09-17T21:41:24.710Z,59.60
2023-09-17T21:44:32.696Z,59.60
2023-09-17T21:47:40.928Z,59.60
2023-09-17T21:50:48.924Z,60.20
2023-09-17T21:53:58.452Z,59.60
2023-09-17T21:57:10.377Z,59.60
2023-09-17T22:00:24.628Z,59.60
2023-09-17T22:03:33.263Z,59.60
2023-09-17T22:06:41.702Z,59.60
2023-09-17T22:09:50.851Z,59.60
2023-09-17T22:12:59.059Z,59.50
2023-09-17T22:16:07.305Z,59.50
2023-09-17T22:19:15.413Z,59.50
2023-09-17T22:22:23.536Z,59.50
2023-09-17T22:25:33.066Z,59.50
2023-09-17T22:28:41.525Z,59.60
2023-09-17T22:31:49.716Z,59.60
2023-09-17T22:34:57.857Z,59.60
2023-09-17T22:38:05.773Z,59.60
2023-09-17T22:41:21.376Z,59.50
2023-09-17T22:44:29.759Z,59.60
2023-09-17T22:47:37.764Z,59.60
2023-09-17T22:50:45.835Z,59.60
2023-09-17T22:53:54.072Z,59.60
2023-09-17T22:57:03.526Z,59.60
2023-09-17T23:00:12.435Z,59.60
2023-09-17T23:03:20.357Z,59.60
2023-09-17T23:06:29.009Z,59.60
2023-09-17T23:09:37.006Z,59.60
2023-09-17T23:12:47.081Z,59.60
2023-09-17T23:15:56.797Z,59.70
2023-09-17T23:19:07.324Z,59.60
2023-09-17T23:22:15.516Z,59.60
2023-09-17T23:25:24.280Z,59.70
2023-09-17T23:28:34.060Z,59.70
2023-09-17T23:31:42.390Z,59.70
2023-09-17T23:34:50.653Z,59.70
2023-09-17T23:37:58.856Z,59.70
2023-09-17T23:41:09.452Z,59.70
2023-09-17T23:44:19.098Z,59.70
2023-09-17T23:47:27.170Z,60.50
2023-09-17T23:50:35.998Z,59.80
2023-09-17T23:53:43.910Z,59.80
2023-09-17T23:56:52.223Z,59.80
